sensor_id;sensor_type;location;lat;lon;timestamp;pressure;altitude;pressure_sealevel;temperature;humidity
82152;BME280;71721;47.904;-122.188;2023-08-06T00:01:48;100778.70;;;16.55;32.53
82152;BME280;71721;47.904;-122.188;2023-08-06T00:04:13;100776.22;;;14.98;34.29
82152;BME280;71721;47.904;-122.188;2023-08-06T00:06:38;100771.29;;;12.45;38.57
82152;BME280;71721;47.904;-122.188;2023-08-06T00:09:03;100769.51;;;12.92;39.02
82152;BME280;71721;47.904;-122.188;2023-08-06T00:11:28;100765.30;;;13.72;37.12
82152;BME280;71721;47.904;-122.188;2023-08-06T00:13:54;100761.90;;;14.17;36.21
82152;BME280;71721;47.904;-122.188;2023-08-06T00:16:18;100755.24;;;16.12;34.31
82152;BME280;71721;47.904;-122.188;2023-08-06T00:18:44;100759.01;;;16.68;33.32
82152;BME280;71721;47.904;-122.188;2023-08-06T00:21:09;100767.57;;;16.85;33.07
82152;BME280;71721;47.904;-122.188;2023-08-06T00:23:34;100782.76;;;16.95;32.59
82152;BME280;71721;47.904;-122.188;2023-08-06T00:26:00;100778.21;;;16.63;32.81
82152;BME280;71721;47.904;-122.188;2023-08-06T00:28:24;100761.48;;;17.14;32.43
82152;BME280;71721;47.904;-122.188;2023-08-06T00:30:53;100756.31;;;17.34;32.01
82152;BME280;71721;47.904;-122.188;2023-08-06T00:33:15;100768.92;;;17.34;32.08
82152;BME280;71721;47.904;-122.188;2023-08-06T00:35:40;100784.94;;;17.24;31.40
82152;BME280;71721;47.904;-122.188;2023-08-06T00:38:05;100783.38;;;17.03;31.28
82152;BME280;71721;47.904;-122.188;2023-08-06T00:40:30;100771.65;;;15.51;33.79
82152;BME280;71721;47.904;-122.188;2023-08-06T00:42:55;100782.44;;;15.55;33.38
82152;BME280;71721;47.904;-122.188;2023-08-06T00:45:21;100794.00;;;14.09;34.25
82152;BME280;71721;47.904;-122.188;2023-08-06T00:47:46;100784.97;;;15.93;32.85
82152;BME280;71721;47.904;-122.188;2023-08-06T00:50:11;100779.20;;;16.49;32.26
82152;BME280;71721;47.904;-122.188;2023-08-06T00:52:37;100777.24;;;14.10;34.87
82152;BME280;71721;47.904;-122.188;2023-08-06T00:55:01;100779.16;;;15.68;33.69
82152;BME280;71721;47.904;-122.188;2023-08-06T00:57:32;100782.80;;;16.49;33.01
82152;BME280;71721;47.904;-122.188;2023-08-06T00:59:53;100783.95;;;16.91;32.37
82152;BME280;71721;47.904;-122.188;2023-08-06T01:02:17;100784.35;;;17.06;31.58
82152;BME280;71721;47.904;-122.188;2023-08-06T01:04:42;100778.79;;;17.37;31.23
82152;BME280;71721;47.904;-122.188;2023-08-06T01:07:16;100772.53;;;17.38;31.20
82152;BME280;71721;47.904;-122.188;2023-08-06T01:09:39;100771.32;;;17.38;30.95
82152;BME280;71721;47.904;-122.188;2023-08-06T01:12:03;100778.79;;;17.52;30.83
82152;BME280;71721;47.904;-122.188;2023-08-06T01:14:26;100783.92;;;17.68;30.74
82152;BME280;71721;47.904;-122.188;2023-08-06T01:16:49;100793.32;;;17.66;30.58
82152;BME280;71721;47.904;-122.188;2023-08-06T01:19:17;100792.49;;;14.56;33.92
82152;BME280;71721;47.904;-122.188;2023-08-06T01:21:38;100792.53;;;15.64;33.50
82152;BME280;71721;47.904;-122.188;2023-08-06T01:24:04;100790.00;;;13.14;36.29
82152;BME280;71721;47.904;-122.188;2023-08-06T01:26:39;100800.76;;;15.17;34.81
82152;BME280;71721;47.904;-122.188;2023-08-06T01:28:59;100800.43;;;16.34;33.31
82152;BME280;71721;47.904;-122.188;2023-08-06T01:31:24;100792.84;;;15.19;33.35
82152;BME280;71721;47.904;-122.188;2023-08-06T01:33:45;100780.66;;;13.14;35.71
82152;BME280;71721;47.904;-122.188;2023-08-06T01:36:10;100778.81;;;13.05;36.91
82152;BME280;71721;47.904;-122.188;2023-08-06T01:38:34;100778.94;;;14.40;36.98
82152;BME280;71721;47.904;-122.188;2023-08-06T01:40:59;100779.43;;;13.36;37.31
82152;BME280;71721;47.904;-122.188;2023-08-06T01:43:24;100787.24;;;14.90;35.87
82152;BME280;71721;47.904;-122.188;2023-08-06T01:45:51;100785.86;;;15.54;34.52
82152;BME280;71721;47.904;-122.188;2023-08-06T01:48:15;100772.15;;;15.57;33.84
82152;BME280;71721;47.904;-122.188;2023-08-06T01:50:40;100770.16;;;14.54;36.17
82152;BME280;71721;47.904;-122.188;2023-08-06T01:53:05;100775.45;;;15.67;35.16
82152;BME280;71721;47.904;-122.188;2023-08-06T01:55:30;100774.16;;;13.19;37.00
82152;BME280;71721;47.904;-122.188;2023-08-06T01:57:55;100773.37;;;12.74;38.25
82152;BME280;71721;47.904;-122.188;2023-08-06T02:00:27;100762.05;;;13.83;37.12
82152;BME280;71721;47.904;-122.188;2023-08-06T02:02:46;100759.02;;;15.30;35.02
82152;BME280;71721;47.904;-122.188;2023-08-06T02:05:12;100763.96;;;14.99;35.09
82152;BME280;71721;47.904;-122.188;2023-08-06T02:07:37;100775.65;;;13.65;37.54
82152;BME280;71721;47.904;-122.188;2023-08-06T02:10:02;100781.36;;;14.71;36.08
82152;BME280;71721;47.904;-122.188;2023-08-06T02:12:27;100773.79;;;15.81;34.21
82152;BME280;71721;47.904;-122.188;2023-08-06T02:14:52;100771.64;;;12.44;38.46
82152;BME280;71721;47.904;-122.188;2023-08-06T02:17:18;100768.79;;;15.05;35.43
82152;BME280;71721;47.904;-122.188;2023-08-06T02:19:43;100771.88;;;16.06;33.85
82152;BME280;71721;47.904;-122.188;2023-08-06T02:22:09;100776.83;;;16.32;33.17
82152;BME280;71721;47.904;-122.188;2023-08-06T02:24:34;100775.57;;;17.00;32.58
82152;BME280;71721;47.904;-122.188;2023-08-06T02:27:04;100772.88;;;15.85;33.17
82152;BME280;71721;47.904;-122.188;2023-08-06T02:29:25;100768.34;;;16.61;32.97
82152;BME280;71721;47.904;-122.188;2023-08-06T02:31:48;100770.52;;;16.68;33.13
82152;BME280;71721;47.904;-122.188;2023-08-06T02:34:14;100777.39;;;16.51;33.30
82152;BME280;71721;47.904;-122.188;2023-08-06T02:36:39;100780.13;;;17.01;32.91
82152;BME280;71721;47.904;-122.188;2023-08-06T02:39:04;100777.29;;;17.53;32.70
82152;BME280;71721;47.904;-122.188;2023-08-06T02:41:30;100778.60;;;17.56;32.61
82152;BME280;71721;47.904;-122.188;2023-08-06T02:43:55;100783.24;;;17.09;33.28
82152;BME280;71721;47.904;-122.188;2023-08-06T02:46:19;100782.33;;;17.38;32.99
82152;BME280;71721;47.904;-122.188;2023-08-06T02:48:45;100779.35;;;17.50;32.36
82152;BME280;71721;47.904;-122.188;2023-08-06T02:51:10;100781.58;;;17.30;32.33
82152;BME280;71721;47.904;-122.188;2023-08-06T02:53:36;100779.18;;;17.43;32.12
82152;BME280;71721;47.904;-122.188;2023-08-06T02:56:02;100778.06;;;17.38;31.37
82152;BME280;71721;47.904;-122.188;2023-08-06T02:58:26;100777.73;;;17.21;31.25
82152;BME280;71721;47.904;-122.188;2023-08-06T03:01:07;100780.52;;;17.07;31.62
82152;BME280;71721;47.904;-122.188;2023-08-06T03:03:16;100777.51;;;16.37;31.86
82152;BME280;71721;47.904;-122.188;2023-08-06T03:05:52;100780.96;;;17.02;31.56
82152;BME280;71721;47.904;-122.188;2023-08-06T03:08:06;100782.73;;;16.79;31.69
82152;BME280;71721;47.904;-122.188;2023-08-06T03:10:33;100781.36;;;17.05;31.88
82152;BME280;71721;47.904;-122.188;2023-08-06T03:12:57;100780.31;;;16.97;32.25
82152;BME280;71721;47.904;-122.188;2023-08-06T03:15:23;100777.32;;;17.08;31.99
82152;BME280;71721;47.904;-122.188;2023-08-06T03:17:48;100776.52;;;16.57;32.68
82152;BME280;71721;47.904;-122.188;2023-08-06T03:20:12;100775.27;;;16.16;32.89
82152;BME280;71721;47.904;-122.188;2023-08-06T03:22:38;100779.99;;;16.89;32.72
82152;BME280;71721;47.904;-122.188;2023-08-06T03:25:04;100783.21;;;15.69;33.83
82152;BME280;71721;47.904;-122.188;2023-08-06T03:27:28;100786.68;;;16.31;33.38
82152;BME280;71721;47.904;-122.188;2023-08-06T03:29:53;100790.05;;;16.28;33.48
82152;BME280;71721;47.904;-122.188;2023-08-06T03:32:18;100795.59;;;15.85;33.97
82152;BME280;71721;47.904;-122.188;2023-08-06T03:34:49;100797.16;;;16.32;33.52
82152;BME280;71721;47.904;-122.188;2023-08-06T03:37:09;100798.61;;;15.71;34.37
82152;BME280;71721;47.904;-122.188;2023-08-06T03:39:34;100794.13;;;16.19;33.78
82152;BME280;71721;47.904;-122.188;2023-08-06T03:41:59;100797.05;;;15.66;34.57
82152;BME280;71721;47.904;-122.188;2023-08-06T03:44:24;100797.29;;;15.08;34.97
82152;BME280;71721;47.904;-122.188;2023-08-06T03:46:49;100801.88;;;14.81;34.80
82152;BME280;71721;47.904;-122.188;2023-08-06T03:49:15;100804.87;;;15.57;34.24
82152;BME280;71721;47.904;-122.188;2023-08-06T03:51:40;100811.11;;;15.89;33.90
82152;BME280;71721;47.904;-122.188;2023-08-06T03:54:06;100812.78;;;16.02;33.62
82152;BME280;71721;47.904;-122.188;2023-08-06T03:56:30;100812.36;;;16.47;33.29
82152;BME280;71721;47.904;-122.188;2023-08-06T03:58:56;100814.05;;;15.94;34.10
82152;BME280;71721;47.904;-122.188;2023-08-06T04:01:20;100814.35;;;15.08;34.99
82152;BME280;71721;47.904;-122.188;2023-08-06T04:03:46;100819.25;;;15.43;34.36
82152;BME280;71721;47.904;-122.188;2023-08-06T04:06:12;100820.98;;;15.76;34.14
82152;BME280;71721;47.904;-122.188;2023-08-06T04:08:36;100823.14;;;16.04;34.09
82152;BME280;71721;47.904;-122.188;2023-08-06T04:11:02;100825.84;;;15.10;34.99
82152;BME280;71721;47.904;-122.188;2023-08-06T04:13:26;100827.44;;;14.24;36.49
82152;BME280;71721;47.904;-122.188;2023-08-06T04:15:52;100830.52;;;14.86;35.93
82152;BME280;71721;47.904;-122.188;2023-08-06T04:18:17;100833.51;;;15.42;35.38
82152;BME280;71721;47.904;-122.188;2023-08-06T04:20:44;100835.14;;;15.21;35.07
82152;BME280;71721;47.904;-122.188;2023-08-06T04:23:07;100836.41;;;16.03;34.65
82152;BME280;71721;47.904;-122.188;2023-08-06T04:25:34;100835.57;;;14.61;36.95
82152;BME280;71721;47.904;-122.188;2023-08-06T04:27:58;100833.38;;;14.40;37.11
82152;BME280;71721;47.904;-122.188;2023-08-06T04:30:23;100831.14;;;14.95;36.85
82152;BME280;71721;47.904;-122.188;2023-08-06T04:32:50;100836.26;;;15.35;35.98
82152;BME280;71721;47.904;-122.188;2023-08-06T04:35:14;100834.36;;;14.58;37.02
82152;BME280;71721;47.904;-122.188;2023-08-06T04:37:38;100834.16;;;14.43;37.24
82152;BME280;71721;47.904;-122.188;2023-08-06T04:40:04;100833.12;;;13.53;37.94
82152;BME280;71721;47.904;-122.188;2023-08-06T04:42:29;100835.83;;;12.60;39.48
82152;BME280;71721;47.904;-122.188;2023-08-06T04:44:55;100835.33;;;13.81;38.25
82152;BME280;71721;47.904;-122.188;2023-08-06T04:47:20;100828.00;;;14.37;36.94
82152;BME280;71721;47.904;-122.188;2023-08-06T04:49:45;100828.44;;;15.18;37.00
82152;BME280;71721;47.904;-122.188;2023-08-06T04:52:10;100827.37;;;14.73;38.40
82152;BME280;71721;47.904;-122.188;2023-08-06T04:54:35;100835.39;;;13.65;40.13
82152;BME280;71721;47.904;-122.188;2023-08-06T04:57:00;100836.86;;;13.77;39.08
82152;BME280;71721;47.904;-122.188;2023-08-06T04:59:26;100826.75;;;14.64;38.06
82152;BME280;71721;47.904;-122.188;2023-08-06T05:01:52;100824.05;;;15.13;37.27
82152;BME280;71721;47.904;-122.188;2023-08-06T05:04:16;100826.33;;;14.68;37.38
82152;BME280;71721;47.904;-122.188;2023-08-06T05:06:42;100825.68;;;15.36;36.77
82152;BME280;71721;47.904;-122.188;2023-08-06T05:09:07;100823.30;;;14.64;37.46
82152;BME280;71721;47.904;-122.188;2023-08-06T05:11:33;100826.17;;;13.95;38.14
82152;BME280;71721;47.904;-122.188;2023-08-06T05:13:57;100830.08;;;13.43;38.89
82152;BME280;71721;47.904;-122.188;2023-08-06T05:16:24;100830.26;;;14.68;37.49
82152;BME280;71721;47.904;-122.188;2023-08-06T05:18:48;100830.72;;;14.85;38.04
82152;BME280;71721;47.904;-122.188;2023-08-06T05:21:13;100832.75;;;15.04;38.08
82152;BME280;71721;47.904;-122.188;2023-08-06T05:23:39;100833.90;;;15.23;37.69
82152;BME280;71721;47.904;-122.188;2023-08-06T05:26:03;100830.66;;;14.62;38.03
82152;BME280;71721;47.904;-122.188;2023-08-06T05:28:29;100831.69;;;15.14;37.41
82152;BME280;71721;47.904;-122.188;2023-08-06T05:30:55;100833.21;;;15.39;36.53
82152;BME280;71721;47.904;-122.188;2023-08-06T05:33:19;100837.66;;;15.19;36.35
82152;BME280;71721;47.904;-122.188;2023-08-06T05:35:45;100839.86;;;15.33;35.97
82152;BME280;71721;47.904;-122.188;2023-08-06T05:38:09;100841.10;;;15.06;36.14
82152;BME280;71721;47.904;-122.188;2023-08-06T05:40:35;100841.17;;;15.33;36.61
82152;BME280;71721;47.904;-122.188;2023-08-06T05:43:00;100842.09;;;15.28;36.32
82152;BME280;71721;47.904;-122.188;2023-08-06T05:45:25;100841.06;;;15.42;36.56
82152;BME280;71721;47.904;-122.188;2023-08-06T05:47:51;100838.59;;;15.00;36.47
82152;BME280;71721;47.904;-122.188;2023-08-06T05:50:17;100839.95;;;14.77;36.63
82152;BME280;71721;47.904;-122.188;2023-08-06T05:52:41;100836.31;;;15.20;36.42
82152;BME280;71721;47.904;-122.188;2023-08-06T05:55:11;100834.76;;;14.96;36.40
82152;BME280;71721;47.904;-122.188;2023-08-06T05:57:36;100831.50;;;14.98;36.51
82152;BME280;71721;47.904;-122.188;2023-08-06T05:59:56;100831.33;;;14.89;36.32
82152;BME280;71721;47.904;-122.188;2023-08-06T06:02:34;100828.75;;;15.02;36.33
82152;BME280;71721;47.904;-122.188;2023-08-06T06:04:47;100831.00;;;14.74;36.63
82152;BME280;71721;47.904;-122.188;2023-08-06T06:07:13;100835.22;;;14.85;36.82
82152;BME280;71721;47.904;-122.188;2023-08-06T06:09:47;100836.44;;;14.68;36.77
82152;BME280;71721;47.904;-122.188;2023-08-06T06:12:03;100838.51;;;14.86;36.88
82152;BME280;71721;47.904;-122.188;2023-08-06T06:14:28;100839.29;;;14.61;37.35
82152;BME280;71721;47.904;-122.188;2023-08-06T06:16:54;100840.18;;;14.54;36.99
82152;BME280;71721;47.904;-122.188;2023-08-06T06:19:24;100840.42;;;15.00;36.59
82152;BME280;71721;47.904;-122.188;2023-08-06T06:21:44;100845.13;;;14.59;37.12
82152;BME280;71721;47.904;-122.188;2023-08-06T06:24:09;100847.06;;;14.38;37.14
82152;BME280;71721;47.904;-122.188;2023-08-06T06:26:34;100845.94;;;14.68;36.98
82152;BME280;71721;47.904;-122.188;2023-08-06T06:29:05;100851.50;;;14.48;37.23
82152;BME280;71721;47.904;-122.188;2023-08-06T06:31:26;100854.46;;;14.84;37.23
82152;BME280;71721;47.904;-122.188;2023-08-06T06:33:50;100855.97;;;14.57;37.42
82152;BME280;71721;47.904;-122.188;2023-08-06T06:36:16;100860.97;;;15.02;37.71
82152;BME280;71721;47.904;-122.188;2023-08-06T06:38:42;100861.56;;;14.11;38.84
82152;BME280;71721;47.904;-122.188;2023-08-06T06:41:11;100862.30;;;13.51;39.77
82152;BME280;71721;47.904;-122.188;2023-08-06T06:43:32;100862.52;;;12.98;40.89
82152;BME280;71721;47.904;-122.188;2023-08-06T06:45:57;100864.96;;;13.48;40.20
82152;BME280;71721;47.904;-122.188;2023-08-06T06:48:22;100862.58;;;13.27;39.99
82152;BME280;71721;47.904;-122.188;2023-08-06T06:50:48;100860.06;;;12.91;41.23
82152;BME280;71721;47.904;-122.188;2023-08-06T06:53:12;100857.55;;;11.85;42.78
82152;BME280;71721;47.904;-122.188;2023-08-06T06:55:38;100853.19;;;12.30;42.08
82152;BME280;71721;47.904;-122.188;2023-08-06T06:58:08;100852.32;;;13.44;40.97
82152;BME280;71721;47.904;-122.188;2023-08-06T07:00:35;100855.39;;;12.29;41.77
82152;BME280;71721;47.904;-122.188;2023-08-06T07:02:55;100854.13;;;13.58;40.49
82152;BME280;71721;47.904;-122.188;2023-08-06T07:05:19;100855.11;;;13.90;40.17
82152;BME280;71721;47.904;-122.188;2023-08-06T07:07:44;100853.72;;;14.12;39.43
82152;BME280;71721;47.904;-122.188;2023-08-06T07:10:10;100850.34;;;14.54;38.71
82152;BME280;71721;47.904;-122.188;2023-08-06T07:12:40;100844.12;;;14.60;38.46
82152;BME280;71721;47.904;-122.188;2023-08-06T07:15:00;100840.67;;;14.78;38.52
82152;BME280;71721;47.904;-122.188;2023-08-06T07:17:25;100841.73;;;13.44;40.65
82152;BME280;71721;47.904;-122.188;2023-08-06T07:19:51;100839.77;;;13.61;40.88
82152;BME280;71721;47.904;-122.188;2023-08-06T07:22:18;100839.88;;;12.64;41.74
82152;BME280;71721;47.904;-122.188;2023-08-06T07:24:42;100838.55;;;12.67;41.45
82152;BME280;71721;47.904;-122.188;2023-08-06T07:27:07;100836.77;;;13.33;40.58
82152;BME280;71721;47.904;-122.188;2023-08-06T07:29:31;100834.77;;;12.49;41.79
82152;BME280;71721;47.904;-122.188;2023-08-06T07:31:57;100834.55;;;13.18;40.60
82152;BME280;71721;47.904;-122.188;2023-08-06T07:34:23;100835.19;;;12.84;40.76
82152;BME280;71721;47.904;-122.188;2023-08-06T07:36:48;100834.65;;;12.47;41.74
82152;BME280;71721;47.904;-122.188;2023-08-06T07:39:15;100835.12;;;12.91;41.03
82152;BME280;71721;47.904;-122.188;2023-08-06T07:41:38;100838.44;;;13.44;40.01
82152;BME280;71721;47.904;-122.188;2023-08-06T07:44:03;100834.70;;;13.57;40.45
82152;BME280;71721;47.904;-122.188;2023-08-06T07:46:28;100839.25;;;13.64;40.25
82152;BME280;71721;47.904;-122.188;2023-08-06T07:48:58;100841.20;;;13.44;40.34
82152;BME280;71721;47.904;-122.188;2023-08-06T07:51:19;100840.81;;;13.69;40.74
82152;BME280;71721;47.904;-122.188;2023-08-06T07:53:45;100839.06;;;13.69;40.36
82152;BME280;71721;47.904;-122.188;2023-08-06T07:56:09;100840.48;;;13.48;40.16
82152;BME280;71721;47.904;-122.188;2023-08-06T07:58:35;100830.43;;;12.18;42.24
82152;BME280;71721;47.904;-122.188;2023-08-06T08:01:00;100824.67;;;13.03;40.92
82152;BME280;71721;47.904;-122.188;2023-08-06T08:03:26;100823.71;;;12.97;41.52
82152;BME280;71721;47.904;-122.188;2023-08-06T08:05:53;100821.25;;;13.16;40.70
82152;BME280;71721;47.904;-122.188;2023-08-06T08:08:16;100820.31;;;13.95;39.81
82152;BME280;71721;47.904;-122.188;2023-08-06T08:10:43;100818.47;;;11.96;41.82
82152;BME280;71721;47.904;-122.188;2023-08-06T08:13:07;100819.07;;;13.19;40.77
82152;BME280;71721;47.904;-122.188;2023-08-06T08:15:32;100817.17;;;13.57;40.39
82152;BME280;71721;47.904;-122.188;2023-08-06T08:17:57;100812.35;;;12.91;40.97
82152;BME280;71721;47.904;-122.188;2023-08-06T08:20:23;100809.88;;;13.09;41.01
82152;BME280;71721;47.904;-122.188;2023-08-06T08:22:48;100809.85;;;13.66;40.66
82152;BME280;71721;47.904;-122.188;2023-08-06T08:25:15;100808.11;;;13.54;40.07
82152;BME280;71721;47.904;-122.188;2023-08-06T08:27:38;100808.46;;;13.78;39.97
82152;BME280;71721;47.904;-122.188;2023-08-06T08:30:05;100808.62;;;14.23;39.57
82152;BME280;71721;47.904;-122.188;2023-08-06T08:32:30;100809.26;;;13.81;39.75
82152;BME280;71721;47.904;-122.188;2023-08-06T08:34:54;100807.38;;;12.40;42.50
82152;BME280;71721;47.904;-122.188;2023-08-06T08:37:20;100805.21;;;13.11;41.72
82152;BME280;71721;47.904;-122.188;2023-08-06T08:39:45;100805.29;;;13.69;40.87
82152;BME280;71721;47.904;-122.188;2023-08-06T08:42:11;100799.65;;;13.85;40.79
82152;BME280;71721;47.904;-122.188;2023-08-06T08:44:35;100802.01;;;13.99;40.22
82152;BME280;71721;47.904;-122.188;2023-08-06T08:47:01;100800.07;;;13.96;40.15
82152;BME280;71721;47.904;-122.188;2023-08-06T08:49:27;100802.00;;;14.03;39.84
82152;BME280;71721;47.904;-122.188;2023-08-06T08:51:53;100802.76;;;14.26;40.03
82152;BME280;71721;47.904;-122.188;2023-08-06T08:54:17;100800.34;;;14.07;40.24
82152;BME280;71721;47.904;-122.188;2023-08-06T08:56:42;100798.21;;;13.98;40.25
82152;BME280;71721;47.904;-122.188;2023-08-06T08:59:07;100799.60;;;13.71;40.82
82152;BME280;71721;47.904;-122.188;2023-08-06T09:01:33;100799.07;;;13.31;40.68
82152;BME280;71721;47.904;-122.188;2023-08-06T09:03:58;100802.68;;;13.45;40.54
82152;BME280;71721;47.904;-122.188;2023-08-06T09:06:25;100802.38;;;14.18;40.06
82152;BME280;71721;47.904;-122.188;2023-08-06T09:08:54;100800.80;;;13.01;41.50
82152;BME280;71721;47.904;-122.188;2023-08-06T09:11:14;100799.16;;;12.82;41.72
82152;BME280;71721;47.904;-122.188;2023-08-06T09:13:39;100795.34;;;12.69;41.31
82152;BME280;71721;47.904;-122.188;2023-08-06T09:16:04;100797.01;;;13.56;40.57
82152;BME280;71721;47.904;-122.188;2023-08-06T09:18:30;100798.06;;;13.52;40.60
82152;BME280;71721;47.904;-122.188;2023-08-06T09:20:54;100798.22;;;13.56;40.57
82152;BME280;71721;47.904;-122.188;2023-08-06T09:23:20;100799.19;;;13.75;40.74
82152;BME280;71721;47.904;-122.188;2023-08-06T09:25:45;100793.98;;;13.27;41.20
82152;BME280;71721;47.904;-122.188;2023-08-06T09:28:11;100792.25;;;12.90;41.64
82152;BME280;71721;47.904;-122.188;2023-08-06T09:30:37;100792.54;;;13.00;42.17
82152;BME280;71721;47.904;-122.188;2023-08-06T09:33:01;100795.81;;;12.23;43.15
82152;BME280;71721;47.904;-122.188;2023-08-06T09:35:29;100798.20;;;12.62;42.68
82152;BME280;71721;47.904;-122.188;2023-08-06T09:37:52;100798.46;;;12.01;42.71
82152;BME280;71721;47.904;-122.188;2023-08-06T09:40:49;100803.75;;;12.47;42.61
82152;BME280;71721;47.904;-122.188;2023-08-06T09:42:43;100799.43;;;12.02;43.08
82152;BME280;71721;47.904;-122.188;2023-08-06T09:45:07;100800.56;;;12.86;42.36
82152;BME280;71721;47.904;-122.188;2023-08-06T09:47:33;100796.09;;;12.22;42.55
82152;BME280;71721;47.904;-122.188;2023-08-06T09:49:58;100797.08;;;12.98;42.15
82152;BME280;71721;47.904;-122.188;2023-08-06T09:52:24;100793.66;;;12.80;41.93
82152;BME280;71721;47.904;-122.188;2023-08-06T09:54:49;100796.93;;;13.29;42.10
82152;BME280;71721;47.904;-122.188;2023-08-06T09:57:14;100797.31;;;12.12;43.12
82152;BME280;71721;47.904;-122.188;2023-08-06T09:59:39;100799.91;;;11.04;45.90
82152;BME280;71721;47.904;-122.188;2023-08-06T10:02:11;100792.90;;;11.16;45.48
82152;BME280;71721;47.904;-122.188;2023-08-06T10:04:30;100790.37;;;11.77;44.00
82152;BME280;71721;47.904;-122.188;2023-08-06T10:06:55;100794.50;;;11.53;44.20
82152;BME280;71721;47.904;-122.188;2023-08-06T10:09:20;100798.41;;;12.58;43.49
82152;BME280;71721;47.904;-122.188;2023-08-06T10:11:50;100804.86;;;12.34;42.77
82152;BME280;71721;47.904;-122.188;2023-08-06T10:14:15;100808.15;;;13.03;41.75
82152;BME280;71721;47.904;-122.188;2023-08-06T10:16:37;100806.38;;;13.06;41.64
82152;BME280;71721;47.904;-122.188;2023-08-06T10:19:03;100810.58;;;12.93;41.94
82152;BME280;71721;47.904;-122.188;2023-08-06T10:21:29;100810.06;;;12.74;42.32
82152;BME280;71721;47.904;-122.188;2023-08-06T10:23:55;100810.15;;;11.11;45.19
82152;BME280;71721;47.904;-122.188;2023-08-06T10:26:18;100812.07;;;11.32;43.98
82152;BME280;71721;47.904;-122.188;2023-08-06T10:28:43;100814.67;;;12.30;43.23
82152;BME280;71721;47.904;-122.188;2023-08-06T10:31:10;100816.63;;;12.86;42.43
82152;BME280;71721;47.904;-122.188;2023-08-06T10:33:42;100815.37;;;12.15;42.61
82152;BME280;71721;47.904;-122.188;2023-08-06T10:36:02;100818.18;;;11.81;43.75
82152;BME280;71721;47.904;-122.188;2023-08-06T10:38:25;100819.69;;;11.86;43.64
82152;BME280;71721;47.904;-122.188;2023-08-06T10:41:01;100817.89;;;12.02;43.51
82152;BME280;71721;47.904;-122.188;2023-08-06T10:43:26;100814.09;;;12.47;42.99
82152;BME280;71721;47.904;-122.188;2023-08-06T10:45:50;100815.34;;;12.54;43.18
82152;BME280;71721;47.904;-122.188;2023-08-06T10:48:05;100814.47;;;12.47;42.34
82152;BME280;71721;47.904;-122.188;2023-08-06T10:50:32;100815.08;;;13.20;42.00
82152;BME280;71721;47.904;-122.188;2023-08-06T10:53:05;100817.81;;;12.64;42.65
82152;BME280;71721;47.904;-122.188;2023-08-06T10:55:26;100822.15;;;11.80;43.34
82152;BME280;71721;47.904;-122.188;2023-08-06T10:57:47;100823.23;;;12.03;43.58
82152;BME280;71721;47.904;-122.188;2023-08-06T11:00:12;100821.00;;;11.98;43.36
82152;BME280;71721;47.904;-122.188;2023-08-06T11:02:37;100819.17;;;12.59;42.86
82152;BME280;71721;47.904;-122.188;2023-08-06T11:05:07;100823.43;;;11.12;46.03
82152;BME280;71721;47.904;-122.188;2023-08-06T11:07:30;100824.48;;;11.74;44.74
82152;BME280;71721;47.904;-122.188;2023-08-06T11:09:53;100830.57;;;11.64;44.51
82152;BME280;71721;47.904;-122.188;2023-08-06T11:12:19;100832.93;;;12.26;43.69
82152;BME280;71721;47.904;-122.188;2023-08-06T11:14:50;100831.17;;;12.56;42.55
82152;BME280;71721;47.904;-122.188;2023-08-06T11:17:09;100830.72;;;12.63;42.60
82152;BME280;71721;47.904;-122.188;2023-08-06T11:19:34;100832.18;;;13.29;41.86
82152;BME280;71721;47.904;-122.188;2023-08-06T11:21:59;100835.78;;;11.87;43.17
82152;BME280;71721;47.904;-122.188;2023-08-06T11:24:25;100843.28;;;11.58;44.00
82152;BME280;71721;47.904;-122.188;2023-08-06T11:26:50;100843.71;;;12.51;42.60
82152;BME280;71721;47.904;-122.188;2023-08-06T11:29:16;100844.14;;;12.49;42.55
82152;BME280;71721;47.904;-122.188;2023-08-06T11:31:41;100843.73;;;12.65;42.25
82152;BME280;71721;47.904;-122.188;2023-08-06T11:34:05;100840.90;;;12.56;42.82
82152;BME280;71721;47.904;-122.188;2023-08-06T11:36:34;100843.78;;;12.46;42.93
82152;BME280;71721;47.904;-122.188;2023-08-06T11:38:56;100849.71;;;11.97;43.17
82152;BME280;71721;47.904;-122.188;2023-08-06T11:41:29;100849.41;;;12.60;42.44
82152;BME280;71721;47.904;-122.188;2023-08-06T11:43:47;100850.27;;;12.39;42.37
82152;BME280;71721;47.904;-122.188;2023-08-06T11:46:12;100849.58;;;12.76;42.03
82152;BME280;71721;47.904;-122.188;2023-08-06T11:48:54;100848.19;;;12.99;41.80
82152;BME280;71721;47.904;-122.188;2023-08-06T11:51:03;100850.06;;;13.16;41.64
82152;BME280;71721;47.904;-122.188;2023-08-06T11:53:28;100852.16;;;12.91;41.83
82152;BME280;71721;47.904;-122.188;2023-08-06T11:55:54;100857.45;;;11.34;44.34
82152;BME280;71721;47.904;-122.188;2023-08-06T11:58:25;100859.98;;;11.96;43.56
82152;BME280;71721;47.904;-122.188;2023-08-06T12:00:44;100861.81;;;12.39;43.64
82152;BME280;71721;47.904;-122.188;2023-08-06T12:03:15;100867.23;;;12.54;42.94
82152;BME280;71721;47.904;-122.188;2023-08-06T12:05:35;100870.51;;;12.53;42.88
82152;BME280;71721;47.904;-122.188;2023-08-06T12:08:01;100872.07;;;12.27;43.00
82152;BME280;71721;47.904;-122.188;2023-08-06T12:10:32;100872.78;;;10.77;45.01